KPUW

Details ICAO KPUW (PUW)
Name Pullman Moscow Rgnl
Region United States
Timezone America/Los_Angeles (UTC-7.0)
Plans Departing 28
Arriving 64
Stats Elevation 2,556 ft / 779 m (AMSL)
Location 46.743856° -117.109587°
Runways 1
Magnetic Variation 14.216° E
Sunrise 2018-05-25 12:04:50 UTC / 2018-05-25 05:04:50 Local
Sunset 2018-05-26 03:28:51 UTC / 2018-05-25 20:28:51 Local
Advertisement - Login to hide

Runways

ID Width Length Bearing (true) Bearing (mag) Surface Threshold Offset Overrun Length
05 100 ft / 30 m 6,714 ft / 2,046 m 70.05° 55.83° Asphalt 290 ft / 88 m 0 ft / 0 m
23 100 ft / 30 m 6,714 ft / 2,046 m 250.07° 235.85° Asphalt 801 ft / 244 m 0 ft / 0 m

Map

Weather


0- 5 10 15 20 25 30 35+ Temperature / ° C

Clouds and Precipitation
Forecast for 2018-05-25 18:00 UTC. Updated 4 hours ago

Ground ~20,000 ft ~40,000 ft Winds

METAR

KPUW 252053Z AUTO 33007KT 300V010 10SM SCT110 24/14 A2988 RMK AO2 SLP104 T02390139 58020

TAF

KPUW 251737Z 2518/2618 25007KT P6SM BKN300 FM252300 29006KT P6SM BKN100 OVC200 FM260300 25007KT P6SM -SHRA VCTS BKN100CB OVC150 FM261000 25004KT P6SM -SHRA OVC080

Frequencies

Recorded 135.67 MHz ASOS
Unicom 122.80 MHz CTAF/UNICOM
Warning: Do not use this data for real-world aviation or navigation. No guarantee of current accuracy is given.